createdAt,value
2022-09-26T00:00:59.227Z,642
2022-09-26T00:02:01.864Z,641.5
2022-09-26T00:03:04.699Z,642
2022-09-26T00:04:06.905Z,642
2022-09-26T00:05:08.847Z,642.8
2022-09-26T00:06:11.058Z,642.6
2022-09-26T00:07:12.977Z,642.6
2022-09-26T00:08:15.179Z,642.4
2022-09-26T00:09:17.375Z,642.8
2022-09-26T00:10:19.400Z,642.7
2022-09-26T00:11:21.346Z,643
2022-09-26T00:12:23.548Z,642.9
2022-09-26T00:13:26.024Z,643.1
2022-09-26T00:14:27.935Z,643.2
2022-09-26T00:15:30.155Z,643
2022-09-26T00:16:32.932Z,643.2
2022-09-26T00:17:35.462Z,643.2
2022-09-26T00:18:37.717Z,643.2
2022-09-26T00:19:40.181Z,642.9
2022-09-26T00:20:42.384Z,643.1
2022-09-26T00:21:44.855Z,643.1
2022-09-26T00:22:47.094Z,642.8
2022-09-26T00:23:49.283Z,642.8
2022-09-26T00:24:51.754Z,643.3
2022-09-26T00:25:54.234Z,643.1
2022-09-26T00:26:56.709Z,643
2022-09-26T00:27:59.174Z,643.3
2022-09-26T00:29:01.644Z,643.2
2022-09-26T00:30:03.277Z,643.2
2022-09-26T00:31:05.649Z,643.5
2022-09-26T00:32:07.965Z,643.6
2022-09-26T00:33:10.454Z,643.6
2022-09-26T00:34:13.004Z,643.7
2022-09-26T00:35:14.930Z,643.9
2022-09-26T00:36:17.415Z,644.1
2022-09-26T00:37:19.893Z,643.9
2022-09-26T00:38:22.087Z,644.1
2022-09-26T00:39:24.553Z,644.1
2022-09-26T00:40:27.277Z,643.9
2022-09-26T00:41:29.232Z,644.1
2022-09-26T00:42:31.783Z,644.1
2022-09-26T00:43:34.247Z,643.7
2022-09-26T00:44:36.425Z,643.7
2022-09-26T00:45:38.315Z,643.9
2022-09-26T00:46:40.287Z,643.9
2022-09-26T00:47:42.229Z,644.1
2022-09-26T00:48:44.434Z,644.2
2022-09-26T00:49:47.067Z,644.2
2022-09-26T00:50:49.270Z,644.6
2022-09-26T00:51:51.483Z,644.4
2022-09-26T00:52:53.959Z,644.9
2022-09-26T00:53:56.429Z,645
2022-09-26T00:54:58.641Z,644.9
2022-09-26T00:56:01.141Z,645.3
2022-09-26T00:57:03.632Z,645.2
2022-09-26T00:58:05.824Z,645.9
2022-09-26T00:59:08.292Z,645.9
2022-09-26T01:00:10.768Z,645.6
2022-09-26T01:01:13.941Z,646.1
2022-09-26T01:02:17.445Z,646.4
2022-09-26T01:03:20.017Z,646.2
2022-09-26T01:04:21.929Z,646.1
2022-09-26T01:05:24.578Z,646.2
2022-09-26T01:06:27.050Z,646.3
2022-09-26T01:07:29.233Z,646.3
2022-09-26T01:08:31.441Z,646.1
2022-09-26T01:09:33.655Z,646.3
2022-09-26T01:10:35.577Z,646.2
2022-09-26T01:11:37.793Z,646.1
2022-09-26T01:12:40.062Z,646.2
2022-09-26T01:13:42.531Z,646.2
2022-09-26T01:14:44.455Z,646.7
2022-09-26T01:15:46.663Z,646.1
2022-09-26T01:16:49.421Z,646.6
2022-09-26T01:17:51.723Z,646.5
2022-09-26T01:18:53.647Z,646.2
2022-09-26T01:19:55.855Z,646.5
2022-09-26T01:20:58.399Z,646.5
2022-09-26T01:22:00.888Z,646.4
2022-09-26T01:23:02.814Z,646.1
2022-09-26T01:24:05.292Z,645.6
2022-09-26T01:25:07.544Z,646
2022-09-26T01:26:10.019Z,646
2022-09-26T01:27:12.495Z,646
2022-09-26T01:28:14.420Z,645.9
2022-09-26T01:29:16.946Z,646.2
2022-09-26T01:30:18.849Z,646.2
2022-09-26T01:31:20.954Z,646.5
2022-09-26T01:32:23.475Z,646.3
2022-09-26T01:33:25.975Z,646.4
2022-09-26T01:34:27.996Z,646.2
2022-09-26T01:35:30.194Z,646.4
2022-09-26T01:36:32.724Z,647
2022-09-26T01:37:35.192Z,646.4
2022-09-26T01:38:37.119Z,646.3
2022-09-26T01:39:39.315Z,646.7
2022-09-26T01:40:42.282Z,647.1
2022-09-26T01:41:44.556Z,647.1
2022-09-26T01:42:46.749Z,647.4
2022-09-26T01:43:49.225Z,647.2
2022-09-26T01:44:51.693Z,647.5
2022-09-26T01:45:54.637Z,647.3
2022-09-26T01:46:56.876Z,647.1
2022-09-26T01:47:58.992Z,647.3
2022-09-26T01:49:01.485Z,647.8
2022-09-26T01:50:03.703Z,647.4
2022-09-26T01:51:05.886Z,647.4
2022-09-26T01:52:08.143Z,647.3
2022-09-26T01:53:10.602Z,647.3
2022-09-26T01:54:12.818Z,647.6
2022-09-26T01:55:15.300Z,647.5
2022-09-26T01:56:16.659Z,647.6
2022-09-26T01:57:19.126Z,648
2022-09-26T01:58:21.323Z,647.8
2022-09-26T01:59:23.812Z,647.5
2022-09-26T02:00:40.668Z,647.9
2022-09-26T02:01:43.141Z,647.7
2022-09-26T02:02:45.733Z,647.7
2022-09-26T02:03:48.267Z,647.4
2022-09-26T02:04:50.197Z,647.4
2022-09-26T02:05:52.416Z,647.8
2022-09-26T02:06:54.337Z,647.7
2022-09-26T02:07:56.592Z,647.7
2022-09-26T02:08:58.505Z,647.9
2022-09-26T02:10:00.493Z,648
2022-09-26T02:11:02.702Z,647.9
2022-09-26T02:12:04.908Z,648.2
2022-09-26T02:13:07.133Z,647.8
2022-09-26T02:14:09.605Z,648.3
2022-09-26T02:15:12.066Z,648.5
2022-09-26T02:16:14.436Z,648.4
2022-09-26T02:17:16.933Z,648.4
2022-09-26T02:18:19.405Z,648.6
2022-09-26T02:19:21.870Z,648.2
2022-09-26T02:20:24.366Z,649.1
2022-09-26T02:21:26.860Z,648.6
2022-09-26T02:22:29.064Z,649.1
2022-09-26T02:23:31.678Z,648.7
2022-09-26T02:24:33.599Z,648.8
2022-09-26T02:25:36.077Z,649.2
2022-09-26T02:26:38.569Z,648.8
2022-09-26T02:27:41.057Z,648.6
2022-09-26T02:28:43.253Z,648.9
2022-09-26T02:29:45.723Z,648.7
2022-09-26T02:30:47.648Z,648.8
2022-09-26T02:31:50.081Z,649.2
2022-09-26T02:32:52.310Z,649.4
2022-09-26T02:33:54.218Z,649.4
2022-09-26T02:34:56.415Z,649.5
2022-09-26T02:35:58.662Z,649.4
2022-09-26T02:37:01.332Z,649.5
2022-09-26T02:38:03.803Z,649.5
2022-09-26T02:39:06.439Z,649.5
2022-09-26T02:40:08.944Z,649.7
2022-09-26T02:41:11.418Z,649.7
2022-09-26T02:42:13.886Z,649.7
2022-09-26T02:43:16.066Z,649.7
2022-09-26T02:44:18.272Z,649.7
2022-09-26T02:45:20.753Z,649.6
2022-09-26T02:46:23.682Z,649.8
2022-09-26T02:47:26.155Z,649.3
2022-09-26T02:48:28.628Z,649.6
2022-09-26T02:49:30.540Z,649.6
2022-09-26T02:51:38.028Z,649.6
2022-09-26T02:52:39.970Z,650
2022-09-26T02:53:42.441Z,649.9
2022-09-26T02:54:44.968Z,649.6
2022-09-26T02:55:47.159Z,649.7
2022-09-26T02:56:49.072Z,649.9
2022-09-26T02:57:51.544Z,649.5
2022-09-26T02:58:53.455Z,649.8
2022-09-26T02:59:55.618Z,650.2
2022-09-26T03:00:57.915Z,650
2022-09-26T03:02:00.421Z,650.8
2022-09-26T03:03:02.612Z,650.6
2022-09-26T03:04:04.811Z,650.4
2022-09-26T03:05:07.132Z,650.2
2022-09-26T03:06:09.355Z,650.6
2022-09-26T03:07:11.885Z,650.3
2022-09-26T03:08:14.366Z,650.2
2022-09-26T03:09:17.093Z,650
2022-09-26T03:10:19.712Z,649.4
2022-09-26T03:11:21.914Z,649.5
2022-09-26T03:12:24.100Z,649.7
2022-09-26T03:13:26.581Z,650
2022-09-26T03:14:29.055Z,649.7
2022-09-26T03:15:30.971Z,649.9
2022-09-26T03:16:33.569Z,650.2
2022-09-26T03:17:35.780Z,650.1
2022-09-26T03:18:38.252Z,650
2022-09-26T03:19:40.717Z,650.2
2022-09-26T03:20:42.988Z,650.2
2022-09-26T03:21:45.174Z,650.2
2022-09-26T03:22:47.408Z,650.1
2022-09-26T03:23:49.635Z,650.3
2022-09-26T03:24:52.134Z,650.3
2022-09-26T03:25:54.374Z,650.5
2022-09-26T03:26:56.572Z,650.5
2022-09-26T03:27:58.752Z,650.6
2022-09-26T03:29:01.224Z,650.4
2022-09-26T03:30:03.159Z,650.5
2022-09-26T03:31:05.360Z,651
2022-09-26T03:32:08.267Z,650.8
2022-09-26T03:33:10.201Z,650.9
2022-09-26T03:34:12.399Z,651
2022-09-26T03:35:14.653Z,651
2022-09-26T03:36:17.158Z,651.4
2022-09-26T03:37:19.375Z,651.3
2022-09-26T03:38:21.323Z,651.6
2022-09-26T03:39:23.252Z,651.8
2022-09-26T03:40:25.786Z,651.4
2022-09-26T03:41:28.419Z,651.5
2022-09-26T03:42:30.608Z,651.2
2022-09-26T03:43:33.089Z,651.3
2022-09-26T03:44:35.299Z,651.4
2022-09-26T03:45:38.137Z,651.6
2022-09-26T03:46:41.912Z,652.1
2022-09-26T03:47:44.873Z,652.1
2022-09-26T03:48:47.474Z,652.4
2022-09-26T03:49:49.959Z,652.3
2022-09-26T03:50:52.155Z,651.9
2022-09-26T03:51:54.336Z,652.3
2022-09-26T03:52:56.560Z,652.5
2022-09-26T03:53:59.064Z,652.5
2022-09-26T03:55:00.995Z,652.5
2022-09-26T03:56:03.466Z,652.8
2022-09-26T03:57:06.007Z,652.7
2022-09-26T03:58:08.470Z,652.8
2022-09-26T03:59:10.969Z,652.7
2022-09-26T04:00:13.222Z,652.5
2022-09-26T04:01:15.779Z,652.8
2022-09-26T04:02:18.874Z,652.4
2022-09-26T04:03:21.112Z,652.7
2022-09-26T04:04:23.302Z,653.2
2022-09-26T04:05:25.511Z,652.8
2022-09-26T04:06:27.697Z,652.8
2022-09-26T04:07:30.180Z,653
2022-09-26T04:08:32.657Z,652.8
2022-09-26T04:09:34.574Z,652.4
2022-09-26T04:10:37.061Z,653.1
2022-09-26T04:11:39.529Z,652.9
2022-09-26T04:12:41.775Z,653.3
2022-09-26T04:14:48.681Z,653.7
2022-09-26T04:15:51.151Z,653.9
2022-09-26T04:16:53.896Z,653.7
2022-09-26T04:17:56.089Z,653.9
2022-09-26T04:18:58.911Z,653.9
2022-09-26T04:20:01.101Z,654.5
2022-09-26T04:22:08.712Z,654.6
2022-09-26T04:23:11.176Z,654.8
2022-09-26T04:24:13.663Z,654.7
2022-09-26T04:25:15.876Z,654.7
2022-09-26T04:27:23.066Z,654.8
2022-09-26T04:28:25.323Z,654.7
2022-09-26T04:29:27.528Z,654.7
2022-09-26T04:30:29.741Z,654.8
2022-09-26T04:31:32.283Z,655
2022-09-26T04:32:34.487Z,655.1
2022-09-26T04:33:36.675Z,655
2022-09-26T04:34:38.867Z,655.6
2022-09-26T04:35:41.342Z,655.4
2022-09-26T04:36:43.808Z,655.3
2022-09-26T04:37:45.993Z,655.1
2022-09-26T04:38:48.341Z,655.3
2022-09-26T04:39:50.540Z,655.2
2022-09-26T04:40:53.056Z,654.9
2022-09-26T04:41:55.308Z,655.1
2022-09-26T04:42:57.238Z,655.2
2022-09-26T04:43:59.892Z,654.9
2022-09-26T04:45:02.361Z,655.1
2022-09-26T04:46:05.301Z,655.2
2022-09-26T04:47:07.704Z,655
2022-09-26T04:48:10.181Z,654.8
2022-09-26T04:49:12.959Z,655
2022-09-26T04:50:15.156Z,655.1
2022-09-26T04:51:17.375Z,655
2022-09-26T04:52:19.582Z,655.2
2022-09-26T04:53:22.052Z,655.2
2022-09-26T04:54:24.258Z,654.9
2022-09-26T04:55:26.731Z,655.1
2022-09-26T04:56:28.951Z,654.8
2022-09-26T04:57:31.159Z,655
2022-09-26T04:58:33.354Z,655.4
2022-09-26T04:59:35.673Z,655
2022-09-26T05:00:38.525Z,655.2
2022-09-26T05:01:40.717Z,655.1
2022-09-26T05:02:43.525Z,655.2
2022-09-26T05:03:46.035Z,655.4
2022-09-26T05:04:48.507Z,655.5
2022-09-26T05:05:50.714Z,655.5
2022-09-26T05:06:53.265Z,655.4
2022-09-26T05:07:55.738Z,655.5
2022-09-26T05:08:57.928Z,655.4
2022-09-26T05:10:00.414Z,655.4
2022-09-26T05:11:02.617Z,655.2
2022-09-26T05:12:05.125Z,655.3
2022-09-26T05:13:07.712Z,655.3
2022-09-26T05:14:09.621Z,655.3
2022-09-26T05:15:12.166Z,655.4
2022-09-26T05:16:14.569Z,655.5
2022-09-26T05:17:17.183Z,655.6
2022-09-26T05:18:19.380Z,655.4
2022-09-26T05:19:21.009Z,655.4
2022-09-26T05:20:23.212Z,655.6
2022-09-26T05:21:25.403Z,655.2
2022-09-26T05:22:27.884Z,655.2
2022-09-26T05:23:30.086Z,655.2
2022-09-26T05:24:32.010Z,655
2022-09-26T05:25:34.477Z,655.2
2022-09-26T05:26:36.676Z,654.9
2022-09-26T05:27:38.966Z,654.6
2022-09-26T05:28:41.187Z,655.3
2022-09-26T05:29:43.106Z,654.9
2022-09-26T05:30:45.641Z,655.2
2022-09-26T05:31:47.825Z,654.7
2022-09-26T05:32:50.374Z,654.7
2022-09-26T05:33:52.842Z,655.1
2022-09-26T05:34:55.041Z,654.7
2022-09-26T05:35:56.952Z,655.2
2022-09-26T05:36:59.147Z,654.6
2022-09-26T05:38:01.345Z,654.8
2022-09-26T05:39:03.553Z,654.4
2022-09-26T05:40:05.786Z,654.5
2022-09-26T05:41:08.084Z,654.6
2022-09-26T05:42:10.287Z,654.7
2022-09-26T05:43:12.776Z,654.6
2022-09-26T05:44:15.000Z,654.2
2022-09-26T05:45:16.928Z,654.1
2022-09-26T05:46:19.615Z,654.1
2022-09-26T05:47:22.121Z,654.1
2022-09-26T05:48:24.582Z,654.5
2022-09-26T05:49:26.779Z,654.4
2022-09-26T05:50:28.976Z,654.6
2022-09-26T05:51:31.188Z,654.7
2022-09-26T05:52:33.114Z,654.7
2022-09-26T05:53:35.032Z,654.9
2022-09-26T05:54:37.514Z,654.6
2022-09-26T05:55:40.238Z,654.8
2022-09-26T05:56:42.430Z,655
2022-09-26T05:57:44.357Z,654.9
2022-09-26T05:58:46.588Z,655.3
2022-09-26T05:59:49.088Z,655.5
2022-09-26T06:00:51.739Z,655.7
2022-09-26T06:01:54.644Z,655.4
2022-09-26T06:02:57.180Z,655.4
2022-09-26T06:03:59.707Z,654.9
2022-09-26T06:05:01.918Z,655.1
2022-09-26T06:06:03.859Z,654.8
2022-09-26T06:07:06.053Z,655.1
2022-09-26T06:08:08.243Z,655.4
2022-09-26T06:09:11.007Z,655.3
2022-09-26T06:10:13.550Z,655.2
2022-09-26T06:11:16.041Z,655.2
2022-09-26T06:12:18.528Z,655.2
2022-09-26T06:13:20.743Z,654.8
2022-09-26T06:14:23.251Z,654.7
2022-09-26T06:15:25.759Z,654.4
2022-09-26T06:16:28.447Z,654.1
2022-09-26T06:17:30.826Z,654.4
2022-09-26T06:18:33.089Z,653.9
2022-09-26T06:19:35.011Z,654.2
2022-09-26T06:20:37.489Z,654
2022-09-26T06:21:39.973Z,654.3
2022-09-26T06:22:41.893Z,654
2022-09-26T06:23:44.378Z,654.4
2022-09-26T06:24:46.318Z,654.2
2022-09-26T06:25:48.787Z,654.3
2022-09-26T06:26:51.286Z,654.3
2022-09-26T06:28:58.619Z,654.1
2022-09-26T06:30:01.151Z,654.5
2022-09-26T06:31:03.375Z,654.7
2022-09-26T06:32:05.652Z,654.6
2022-09-26T06:33:08.390Z,654.8
2022-09-26T06:34:10.604Z,654.7
2022-09-26T06:35:12.803Z,654.3
2022-09-26T06:36:14.751Z,653.9
2022-09-26T06:37:16.429Z,654.1
2022-09-26T06:38:18.650Z,654.6
2022-09-26T06:39:20.886Z,654.4
2022-09-26T06:40:23.497Z,654.4
2022-09-26T06:41:25.708Z,654.6
2022-09-26T06:42:27.633Z,654.6
2022-09-26T06:43:29.572Z,654.6
2022-09-26T06:44:31.774Z,654.9
2022-09-26T06:45:34.283Z,654.9
2022-09-26T06:46:37.065Z,654.7
2022-09-26T06:47:39.064Z,654.9
2022-09-26T06:48:41.035Z,654.8
2022-09-26T06:49:43.001Z,655.3
2022-09-26T06:50:44.914Z,654.9
2022-09-26T06:51:47.414Z,655.1
2022-09-26T06:52:49.081Z,655.1
2022-09-26T06:53:51.283Z,655
2022-09-26T06:54:53.761Z,655.1
2022-09-26T06:55:55.962Z,654.9
2022-09-26T06:56:57.869Z,655
2022-09-26T06:57:59.506Z,654.7
2022-09-26T06:59:01.705Z,654.4
2022-09-26T07:00:03.608Z,654.7
2022-09-26T07:01:07.111Z,654.7
2022-09-26T07:02:10.683Z,654.3
2022-09-26T07:03:12.740Z,655
2022-09-26T07:04:15.317Z,654.6
2022-09-26T07:05:17.814Z,654.9
2022-09-26T07:06:20.019Z,655
2022-09-26T07:07:22.331Z,655
2022-09-26T07:09:29.789Z,654.9
2022-09-26T07:10:32.225Z,655.1
2022-09-26T07:12:39.447Z,655
2022-09-26T07:13:41.374Z,655.8
2022-09-26T07:14:43.933Z,655.3
2022-09-26T07:15:46.380Z,655.6
2022-09-26T07:16:48.915Z,655.6
2022-09-26T07:17:50.889Z,655.5
2022-09-26T07:18:53.104Z,655.7
2022-09-26T07:19:55.901Z,656
2022-09-26T07:20:59.056Z,656
2022-09-26T07:22:01.257Z,656.2
2022-09-26T07:23:03.547Z,656.3
2022-09-26T07:24:06.035Z,656.5
2022-09-26T07:25:08.249Z,656.5
2022-09-26T07:26:10.449Z,656.5
2022-09-26T07:27:12.971Z,656.5
2022-09-26T07:28:15.444Z,656.3
2022-09-26T07:29:18.023Z,656.6
2022-09-26T07:30:20.233Z,656.4
2022-09-26T07:31:23.182Z,656.3
2022-09-26T07:32:25.167Z,656.3
2022-09-26T07:33:27.407Z,655.8
2022-09-26T07:34:29.337Z,655.5
2022-09-26T07:35:31.952Z,655.2
2022-09-26T07:36:34.433Z,655.8
2022-09-26T07:37:36.346Z,655.5
2022-09-26T07:38:38.270Z,655.9
2022-09-26T07:39:40.521Z,655.8
2022-09-26T07:40:43.532Z,655.7
2022-09-26T07:41:46.620Z,656.2
2022-09-26T07:46:04.074Z,656.3
2022-09-26T07:47:06.322Z,656.4
2022-09-26T07:48:08.886Z,655.7
2022-09-26T07:49:11.379Z,656.4
2022-09-26T07:50:13.613Z,656.4
2022-09-26T07:51:15.602Z,656.8
2022-09-26T07:52:18.074Z,656
2022-09-26T07:53:20.289Z,656.2
2022-09-26T07:54:22.778Z,656.5
2022-09-26T07:55:25.264Z,656.1
2022-09-26T07:56:27.739Z,656.6
2022-09-26T07:57:29.663Z,656.3
2022-09-26T07:58:31.867Z,656.3
2022-09-26T07:59:33.800Z,656.5
2022-09-26T08:00:36.291Z,656.5
2022-09-26T08:01:39.283Z,656.6
2022-09-26T08:02:42.317Z,656.1
2022-09-26T08:03:44.935Z,656.6
2022-09-26T08:04:46.896Z,656.5
2022-09-26T08:05:49.366Z,656.6
2022-09-26T08:06:51.992Z,656.9
2022-09-26T08:07:53.944Z,657
2022-09-26T08:08:56.443Z,657.3
2022-09-26T08:09:58.918Z,657.3
2022-09-26T08:12:06.405Z,657.6
2022-09-26T08:13:08.887Z,657.5
2022-09-26T08:14:11.569Z,657.9
2022-09-26T08:15:13.844Z,657.8
2022-09-26T08:16:16.688Z,657.5
2022-09-26T08:17:19.207Z,657.5
2022-09-26T08:18:21.418Z,657.7
2022-09-26T08:19:23.653Z,657.7
2022-09-26T08:21:31.119Z,657.5
2022-09-26T08:22:33.770Z,657.6
2022-09-26T08:23:36.237Z,657
2022-09-26T08:24:38.704Z,657.4
2022-09-26T08:25:41.185Z,657.4
2022-09-26T08:27:48.659Z,657.1
2022-09-26T08:28:50.580Z,657.8
2022-09-26T08:29:52.847Z,657.7
2022-09-26T08:30:55.684Z,657.5
2022-09-26T08:31:58.301Z,657.4
2022-09-26T08:33:00.770Z,657.5
2022-09-26T08:34:03.257Z,657.6
2022-09-26T08:35:05.745Z,657.7
2022-09-26T08:36:07.703Z,657.9
2022-09-26T08:37:10.174Z,657.8
2022-09-26T08:38:12.706Z,658.2
2022-09-26T08:39:15.652Z,658.3
2022-09-26T08:40:18.612Z,658.6
2022-09-26T08:41:20.864Z,658.3
2022-09-26T08:42:23.337Z,658.4
2022-09-26T08:43:25.546Z,658.6
2022-09-26T08:44:27.622Z,658.5
2022-09-26T08:45:29.842Z,658.3
2022-09-26T08:46:32.815Z,658.8
2022-09-26T08:47:35.063Z,658.7
2022-09-26T08:48:37.266Z,658.5
2022-09-26T08:49:39.199Z,659
2022-09-26T08:50:41.443Z,659.1
2022-09-26T08:51:43.977Z,659
2022-09-26T08:52:46.458Z,658.9
2022-09-26T08:53:49.166Z,659.1
2022-09-26T08:54:51.356Z,659.3
2022-09-26T08:55:53.839Z,659.8
2022-09-26T08:56:56.322Z,660
2022-09-26T08:57:58.812Z,659.8
2022-09-26T08:59:01.297Z,660
2022-09-26T09:00:03.794Z,660.2
2022-09-26T09:01:05.738Z,660
2022-09-26T09:02:08.434Z,660
2022-09-26T09:03:11.703Z,659.7
2022-09-26T09:04:14.093Z,659.9
2022-09-26T09:05:16.689Z,659.6
2022-09-26T09:06:18.991Z,659.8
2022-09-26T09:07:21.213Z,659.7
2022-09-26T09:08:23.533Z,659.8
2022-09-26T09:09:26.088Z,659.9
2022-09-26T09:10:28.576Z,659.9
2022-09-26T09:11:31.052Z,660.3
2022-09-26T09:12:34.255Z,659.9
2022-09-26T09:13:36.229Z,660
2022-09-26T09:14:38.429Z,660.3
2022-09-26T09:15:41.282Z,660.6
2022-09-26T09:16:43.530Z,660.6
2022-09-26T09:17:45.736Z,660.6
2022-09-26T09:18:47.641Z,660.4
2022-09-26T09:19:49.581Z,660.4
2022-09-26T09:20:51.807Z,660.6
2022-09-26T09:21:54.492Z,660.4
2022-09-26T09:22:56.725Z,660.4
2022-09-26T09:23:58.920Z,660.7
2022-09-26T09:25:01.494Z,660.7
2022-09-26T09:28:13.966Z,661.2
2022-09-26T09:30:21.447Z,661.1
2022-09-26T09:31:23.924Z,661.4
2022-09-26T09:32:26.444Z,661.8
2022-09-26T09:33:28.924Z,661.9
2022-09-26T09:34:31.396Z,661.8
2022-09-26T09:35:33.867Z,661.6
2022-09-26T09:36:35.523Z,662.2
2022-09-26T09:37:37.461Z,661.9
2022-09-26T09:38:39.698Z,661.7
2022-09-26T09:39:41.913Z,661.8
2022-09-26T09:40:44.701Z,662.4
2022-09-26T09:41:46.922Z,662.2
2022-09-26T09:42:49.133Z,662.2
2022-09-26T09:43:51.336Z,661.8
2022-09-26T09:44:53.536Z,662.1
2022-09-26T09:45:55.457Z,662.1
2022-09-26T09:46:58.207Z,662.3
2022-09-26T09:48:00.427Z,662.7
2022-09-26T09:49:02.362Z,662.6
2022-09-26T09:50:04.840Z,662.7
2022-09-26T09:51:07.337Z,662.7
2022-09-26T09:52:09.271Z,662.9
2022-09-26T09:53:11.778Z,662.6
2022-09-26T09:54:14.388Z,663
2022-09-26T09:55:16.898Z,662.8
2022-09-26T09:56:19.448Z,662.7
2022-09-26T09:57:21.918Z,663
2022-09-26T09:58:23.845Z,663
2022-09-26T09:59:26.334Z,663.5
2022-09-26T10:00:28.807Z,663.6
2022-09-26T10:01:31.288Z,663.6
2022-09-26T10:02:34.281Z,663.7
2022-09-26T10:03:35.978Z,664.3
2022-09-26T10:04:38.180Z,664
2022-09-26T10:05:40.112Z,664.2
2022-09-26T10:07:47.307Z,664
2022-09-26T10:08:49.697Z,664.2
2022-09-26T10:09:51.972Z,664.3
2022-09-26T10:10:54.453Z,664.1
2022-09-26T10:11:57.005Z,664.4
2022-09-26T10:12:58.919Z,664.4
2022-09-26T10:14:01.418Z,664.2
2022-09-26T10:15:03.651Z,664.1
2022-09-26T10:16:05.776Z,664
2022-09-26T10:17:07.464Z,663.6
2022-09-26T10:19:14.996Z,663.8
2022-09-26T10:20:17.212Z,664
2022-09-26T10:21:19.807Z,663.9
2022-09-26T10:22:22.015Z,663.5
2022-09-26T10:23:24.223Z,663.7
2022-09-26T10:24:26.156Z,663.6
2022-09-26T10:25:28.713Z,662.5
2022-09-26T10:27:36.281Z,662.8
2022-09-26T10:28:38.481Z,662.9
2022-09-26T10:29:40.693Z,663.1
2022-09-26T10:30:43.180Z,663.1
2022-09-26T10:31:46.058Z,663.5
2022-09-26T10:33:54.460Z,663.5
2022-09-26T10:34:56.671Z,663.5
2022-09-26T10:35:59.144Z,663.8
2022-09-26T10:37:01.349Z,663.9
2022-09-26T10:38:03.563Z,663.2
2022-09-26T10:39:05.470Z,663.9
2022-09-26T10:40:07.984Z,664
2022-09-26T10:41:10.624Z,663.6
2022-09-26T10:42:12.842Z,664
2022-09-26T10:43:14.805Z,663.6
2022-09-26T10:44:17.407Z,663.7
2022-09-26T10:45:19.348Z,663.6
2022-09-26T10:46:22.209Z,663.7
2022-09-26T10:47:24.725Z,663.6
2022-09-26T10:48:26.942Z,663.3
2022-09-26T10:49:29.135Z,664.2
2022-09-26T10:50:31.046Z,664.3
2022-09-26T10:51:33.537Z,664.1
2022-09-26T10:52:35.735Z,664.6
2022-09-26T10:53:37.668Z,664.6
2022-09-26T10:54:40.147Z,664.8
2022-09-26T10:55:42.639Z,664.9
2022-09-26T10:56:45.170Z,664.7
2022-09-26T10:57:47.381Z,664.8
2022-09-26T10:58:50.043Z,665.1
2022-09-26T10:59:52.530Z,665.2
2022-09-26T11:00:54.741Z,665.1
2022-09-26T11:01:57.498Z,665
2022-09-26T11:02:59.748Z,664.9
2022-09-26T11:04:02.475Z,664.6
2022-09-26T11:05:04.755Z,665.2
2022-09-26T11:06:06.683Z,665.4
2022-09-26T11:07:09.158Z,665.1
2022-09-26T11:08:11.626Z,665.4
2022-09-26T11:09:13.834Z,665.5
2022-09-26T11:10:16.472Z,665.5
2022-09-26T11:11:18.988Z,665.8
2022-09-26T11:12:21.585Z,665.3
2022-09-26T11:13:23.778Z,665.5
2022-09-26T11:15:31.824Z,666.1
2022-09-26T11:17:39.060Z,667
2022-09-26T11:18:41.265Z,666.5
2022-09-26T11:19:42.941Z,666.7
2022-09-26T11:20:45.185Z,667.1
2022-09-26T11:21:47.664Z,666.8
2022-09-26T11:22:49.868Z,666.9
2022-09-26T11:23:52.086Z,667.3
2022-09-26T11:25:58.851Z,667.7
2022-09-26T11:28:36.548Z,668.1
2022-09-26T11:35:26.684Z,668.8
2022-09-26T11:41:44.719Z,669.6
2022-09-26T11:42:46.911Z,669.8
2022-09-26T11:43:49.628Z,670.1
2022-09-26T11:44:51.843Z,670.6
2022-09-26T11:45:54.549Z,670.5
2022-09-26T11:46:56.982Z,670.7
2022-09-26T11:47:59.229Z,671
2022-09-26T11:49:01.443Z,671
2022-09-26T11:50:04.027Z,670.9
2022-09-26T11:51:05.701Z,671.1
2022-09-26T11:52:07.904Z,670.8
2022-09-26T11:53:09.838Z,671.1
2022-09-26T11:54:11.848Z,671
2022-09-26T11:55:14.365Z,671.6
2022-09-26T11:56:16.615Z,671.9
2022-09-26T11:57:19.117Z,671.1
2022-09-26T11:58:21.655Z,671.3
2022-09-26T11:59:24.126Z,671.4
2022-09-26T12:00:26.193Z,671.8
2022-09-26T12:01:28.711Z,672.1
2022-09-26T12:02:31.421Z,672.4
2022-09-26T12:03:34.641Z,672.4
2022-09-26T12:04:37.229Z,672.2
2022-09-26T12:05:39.437Z,672.5
2022-09-26T12:06:41.647Z,672.4
2022-09-26T12:07:43.840Z,672.7
2022-09-26T12:08:46.103Z,672.6
2022-09-26T12:09:48.328Z,672.8
2022-09-26T12:10:50.267Z,673.1
2022-09-26T12:11:52.745Z,673.3
2022-09-26T12:12:55.494Z,673.4
2022-09-26T12:13:58.089Z,673.7
2022-09-26T12:15:00.302Z,673.7
2022-09-26T12:16:03.173Z,674.1
2022-09-26T12:17:05.762Z,673.9
2022-09-26T12:18:07.959Z,674.1
2022-09-26T12:20:15.464Z,674.7
2022-09-26T12:21:17.953Z,674.8
2022-09-26T12:22:20.603Z,674.8
2022-09-26T12:23:23.092Z,675.3
2022-09-26T12:24:25.301Z,674.6
2022-09-26T12:25:27.208Z,675.3
2022-09-26T12:26:29.425Z,675.1
2022-09-26T12:27:31.068Z,675.7
2022-09-26T12:28:33.317Z,675.7
2022-09-26T12:29:35.536Z,675.6
2022-09-26T12:30:37.761Z,676.3
2022-09-26T12:31:40.589Z,675.8
2022-09-26T12:32:43.141Z,676.5
2022-09-26T12:33:45.342Z,676.8
2022-09-26T12:34:47.870Z,677
2022-09-26T12:35:50.365Z,677
2022-09-26T12:36:52.301Z,677.2
2022-09-26T12:37:54.532Z,677.7
2022-09-26T12:38:58.278Z,677
2022-09-26T12:40:00.213Z,676.8
2022-09-26T12:41:02.930Z,677.9
2022-09-26T12:42:05.217Z,677.6
2022-09-26T12:43:07.146Z,677.5
2022-09-26T12:44:09.668Z,677.4
2022-09-26T12:45:11.864Z,677.5
2022-09-26T12:46:14.711Z,678.1
2022-09-26T12:47:17.203Z,678.1
2022-09-26T12:48:19.697Z,678.2
2022-09-26T12:49:21.705Z,678.5
2022-09-26T12:50:23.916Z,678
2022-09-26T12:51:26.118Z,678.1
2022-09-26T12:52:29.347Z,677.9
2022-09-26T12:53:31.591Z,677.9
2022-09-26T12:54:34.074Z,677.8
2022-09-26T12:55:36.551Z,678.2
2022-09-26T12:56:39.037Z,678.4
2022-09-26T12:57:41.510Z,678.4
2022-09-26T12:58:43.711Z,678.8
2022-09-26T12:59:46.200Z,679.1
2022-09-26T13:00:48.675Z,679.5
2022-09-26T13:01:51.859Z,679.5
2022-09-26T13:02:54.866Z,679.7
2022-09-26T13:03:57.123Z,680.2
2022-09-26T13:04:59.295Z,679.9
2022-09-26T13:08:11.986Z,680
2022-09-26T13:09:15.043Z,679.6
2022-09-26T13:10:17.879Z,680.2
2022-09-26T13:11:20.346Z,679.8
2022-09-26T13:12:22.827Z,680.2
2022-09-26T13:13:25.032Z,680.2
2022-09-26T13:14:27.528Z,680.6
2022-09-26T13:15:30.037Z,680.9
2022-09-26T13:16:32.288Z,681.1
2022-09-26T13:17:34.483Z,681
2022-09-26T13:18:37.640Z,680.6
2022-09-26T13:19:40.160Z,681.1
2022-09-26T13:20:42.682Z,681.3
2022-09-26T13:21:45.178Z,681
2022-09-26T13:22:47.666Z,681.6
2022-09-26T13:23:49.915Z,682.2
2022-09-26T13:24:52.436Z,682
2022-09-26T13:25:54.968Z,682.5
2022-09-26T13:26:57.446Z,682.8
2022-09-26T13:27:59.393Z,683.2
2022-09-26T13:30:06.874Z,683.1
2022-09-26T13:31:09.843Z,683.2
2022-09-26T13:32:11.809Z,683.7
2022-09-26T13:33:14.332Z,683.6
2022-09-26T13:34:16.809Z,684
2022-09-26T13:35:19.323Z,683.7
2022-09-26T13:36:21.526Z,684.1
2022-09-26T13:37:24.113Z,684.6
2022-09-26T13:38:26.587Z,684.6
2022-09-26T13:39:29.109Z,684.2
2022-09-26T13:41:36.615Z,684.3
2022-09-26T13:42:39.083Z,684.8
2022-09-26T13:43:41.293Z,684.3
2022-09-26T13:44:43.490Z,684.6
2022-09-26T13:45:45.693Z,684.4
2022-09-26T13:46:47.802Z,684.6
2022-09-26T13:47:50.388Z,684.5
2022-09-26T13:48:52.873Z,684.3
2022-09-26T13:49:55.363Z,684.8
2022-09-26T13:50:57.902Z,684.5
2022-09-26T13:52:00.134Z,684.4
2022-09-26T13:53:02.359Z,684.7
2022-09-26T13:54:04.919Z,684.7
2022-09-26T13:55:07.417Z,684.4
2022-09-26T13:56:09.621Z,685
2022-09-26T13:57:12.135Z,684.7
2022-09-26T13:58:14.606Z,684.3
2022-09-26T13:59:17.091Z,684.3
2022-09-26T14:00:19.588Z,684.7
2022-09-26T14:01:22.143Z,684.6
2022-09-26T14:02:25.145Z,684.8
2022-09-26T14:03:27.741Z,684.9
2022-09-26T14:04:30.214Z,685
2022-09-26T14:05:32.702Z,685.3
2022-09-26T14:06:35.228Z,685.3
2022-09-26T14:07:37.629Z,685.8
2022-09-26T14:08:40.131Z,685.1
2022-09-26T14:09:42.620Z,685.8
2022-09-26T14:10:44.834Z,685.5
2022-09-26T14:11:46.775Z,685.8